Time;durP1;ratioP1;P1;durP2;ratioP2;P2;SDS_P1;SDS_P2;PMS_P1;PMS_P2;Temp;Humidity;BMP_temperature;BMP_pressure;BME280_temperature;BME280_humidity;BME280_pressure;Samples;Min_cycle;Max_cycle;Signal;HPM_P1;HPM_P2
2023/11/12 00:00:19;;;;;;;9.60;5.75;;;;;;;19.49;44.30;100486.31;5008016;28;20432;-75
2023/11/12 00:02:44;;;;;;;9.95;5.80;;;;;;;19.48;44.20;100484.66;5007074;28;20091;-75
2023/11/12 00:05:11;;;;;;;10.97;6.30;;;;;;;19.46;44.50;100481.31;5008181;28;20045;-75
2023/11/12 00:07:37;;;;;;;9.82;6.53;;;;;;;19.46;44.26;100485.78;5013458;28;21232;-75
2023/11/12 00:10:03;;;;;;;11.30;7.07;;;;;;;19.43;44.37;100486.91;5013723;28;20026;-75
2023/11/12 00:12:29;;;;;;;10.93;6.85;;;;;;;19.43;44.29;100489.53;5013851;28;20118;-75
2023/11/12 00:14:55;;;;;;;9.55;6.13;;;;;;;19.43;44.29;100494.00;5012905;28;20030;-75
2023/11/12 00:17:21;;;;;;;12.07;7.65;;;;;;;19.42;44.07;100487.03;5013490;28;20084;-75
2023/11/12 00:19:47;;;;;;;13.35;8.20;;;;;;;19.41;44.17;100483.56;5012944;28;20440;-74
2023/11/12 00:22:12;;;;;;;12.35;7.50;;;;;;;19.40;44.23;100481.88;5011669;28;20069;-75
2023/11/12 00:24:38;;;;;;;11.73;7.97;;;;;;;19.38;44.08;100481.22;5012092;28;20120;-75
2023/11/12 00:27:04;;;;;;;12.02;7.53;;;;;;;19.37;44.38;100480.34;5012132;28;20033;-74
2023/11/12 00:29:31;;;;;;;12.60;8.23;;;;;;;19.36;43.90;100469.94;5012501;28;20068;-74
2023/11/12 00:31:57;;;;;;;14.57;8.95;;;;;;;19.34;44.14;100474.53;5011397;28;20029;-75
2023/11/12 00:34:23;;;;;;;13.88;8.80;;;;;;;19.34;44.31;100475.38;5008116;28;20033;-75
2023/11/12 00:36:49;;;;;;;13.77;9.07;;;;;;;19.32;44.00;100477.31;5015255;28;20116;-73
2023/11/12 00:39:15;;;;;;;14.82;8.38;;;;;;;19.31;44.26;100473.00;5007257;28;20063;-74
2023/11/12 00:41:40;;;;;;;14.73;9.02;;;;;;;19.31;44.18;100472.16;5008529;28;20069;-75
2023/11/12 00:44:08;;;;;;;13.82;8.27;;;;;;;19.29;44.15;100472.31;5001551;28;20555;-75
2023/11/12 00:46:36;;;;;;;9.85;7.13;;;;;;;19.30;44.06;100470.50;5009474;28;20088;-75
2023/11/12 00:49:02;;;;;;;14.43;9.13;;;;;;;19.28;44.21;100469.81;5009058;28;20029;-75
2023/11/12 00:51:27;;;;;;;12.80;8.38;;;;;;;19.27;44.10;100470.78;5008251;28;20413;-74
2023/11/12 00:53:53;;;;;;;13.43;7.97;;;;;;;19.27;44.16;100460.22;5000322;28;20040;-74
2023/11/12 00:56:18;;;;;;;12.00;7.72;;;;;;;19.26;43.88;100466.47;5011984;28;20128;-75
2023/11/12 00:58:44;;;;;;;13.50;7.10;;;;;;;19.24;44.15;100461.34;5010956;28;20087;-75
2023/11/12 01:01:10;;;;;;;12.18;7.70;;;;;;;19.23;44.08;100458.81;5013351;28;20626;-75
2023/11/12 01:03:35;;;;;;;10.98;7.30;;;;;;;19.22;43.98;100460.66;5000399;28;20034;-75
2023/11/12 01:06:04;;;;;;;10.90;7.07;;;;;;;19.23;44.20;100464.13;5009001;28;20044;-74
2023/11/12 01:08:30;;;;;;;12.75;7.28;;;;;;;19.20;44.04;100452.88;5011266;28;20037;-73
2023/11/12 01:10:56;;;;;;;12.10;6.72;;;;;;;19.19;44.26;100455.66;5004744;28;20029;-74
2023/11/12 01:13:21;;;;;;;11.07;6.95;;;;;;;19.19;44.37;100455.66;5009866;28;20033;-74
2023/11/12 01:15:47;;;;;;;10.60;6.53;;;;;;;19.19;44.03;100453.00;5007977;28;20124;-75
2023/11/12 01:18:13;;;;;;;11.32;7.75;;;;;;;19.17;43.94;100455.78;5013679;28;20446;-74
2023/11/12 01:20:38;;;;;;;10.00;6.38;;;;;;;19.16;44.02;100454.09;5009878;28;20052;-75
2023/11/12 01:23:04;;;;;;;10.30;6.35;;;;;;;19.15;44.09;100449.81;5009707;28;20029;-75
2023/11/12 01:25:29;;;;;;;10.90;6.45;;;;;;;19.14;44.29;100445.50;5010961;28;20072;-75
2023/11/12 01:27:54;;;;;;;9.52;6.18;;;;;;;19.14;44.26;100450.78;5001347;28;20101;-74
2023/11/12 01:30:20;;;;;;;10.90;6.00;;;;;;;19.14;43.98;100452.59;5010328;28;20061;-74
2023/11/12 01:32:45;;;;;;;9.32;5.75;;;;;;;19.12;44.08;100458.03;5010924;28;20124;-75
2023/11/12 01:35:11;;;;;;;11.05;6.05;;;;;;;19.11;44.06;100447.59;5011907;28;20878;-75
2023/11/12 01:37:36;;;;;;;9.95;6.47;;;;;;;19.10;43.70;100449.38;5009380;28;20030;-75
2023/11/12 01:40:01;;;;;;;9.25;6.40;;;;;;;19.10;43.72;100449.38;5013419;28;20045;-74
2023/11/12 01:42:26;;;;;;;9.13;5.82;;;;;;;19.09;44.02;100452.16;5009223;28;20030;-76
2023/11/12 01:44:52;;;;;;;8.70;5.73;;;;;;;19.09;43.78;100446.88;5012401;28;20044;-75
2023/11/12 01:47:18;;;;;;;8.82;5.97;;;;;;;19.09;43.64;100446.88;5008042;28;20291;-75
2023/11/12 01:49:44;;;;;;;10.60;6.10;;;;;;;19.07;43.65;100443.56;5008298;28;20138;-75
2023/11/12 01:52:11;;;;;;;8.93;5.90;;;;;;;19.07;43.59;100443.56;5000110;28;20484;-75
2023/11/12 01:54:39;;;;;;;10.38;6.55;;;;;;;19.06;43.63;100449.81;5006291;28;20429;-75
2023/11/12 01:57:07;;;;;;;10.93;5.88;;;;;;;19.06;43.85;100444.53;4999162;28;20064;-74
2023/11/12 01:59:34;;;;;;;9.63;6.03;;;;;;;19.05;43.67;100435.78;5004994;28;20033;-75
2023/11/12 02:02:00;;;;;;;9.05;5.95;;;;;;;19.03;43.78;100443.00;5005989;28;20046;-74
2023/11/12 02:04:27;;;;;;;9.32;5.90;;;;;;;19.02;43.54;100451.91;5009623;28;20042;-74
2023/11/12 02:06:52;;;;;;;8.95;5.65;;;;;;;19.02;43.89;100446.63;5009921;28;20083;-73
2023/11/12 02:09:19;;;;;;;9.73;6.22;;;;;;;19.01;43.78;100456.34;5007514;28;20719;-74
2023/11/12 02:11:45;;;;;;;10.50;6.00;;;;;;;19.01;43.67;100450.25;5009645;28;20040;-75
2023/11/12 02:14:10;;;;;;;10.07;6.32;;;;;;;19.00;43.62;100451.22;5012233;28;20041;-74
2023/11/12 02:16:36;;;;;;;9.25;5.32;;;;;;;18.98;43.67;100453.16;5013810;28;20061;-74
2023/11/12 02:19:01;;;;;;;9.13;5.90;;;;;;;18.99;43.52;100449.53;4997350;28;20567;-75
2023/11/12 02:21:32;;;;;;;9.07;5.15;;;;;;;18.98;43.53;100451.34;5013365;28;20025;-74
2023/11/12 02:23:57;;;;;;;8.88;5.30;;;;;;;18.96;43.74;100442.75;5016564;28;20095;-74
2023/11/12 02:26:23;;;;;;;8.35;5.47;;;;;;;18.95;43.48;100446.34;5008055;28;20440;-74
2023/11/12 02:28:48;;;;;;;8.93;5.40;;;;;;;18.96;43.61;100455.09;5015354;28;20037;-74
2023/11/12 02:31:14;;;;;;;9.88;4.85;;;;;;;18.95;43.29;100454.28;4999181;28;20033;-76
2023/11/12 02:33:40;;;;;;;12.35;5.53;;;;;;;18.94;43.40;100452.59;5008050;28;20072;-75
2023/11/12 02:36:07;;;;;;;7.97;5.18;;;;;;;18.94;43.40;100455.22;5012542;28;20037;-75
2023/11/12 02:38:33;;;;;;;7.85;4.90;;;;;;;18.93;43.73;100450.09;5010334;28;20092;-74
2023/11/12 02:41:04;;;;;;;7.88;4.78;;;;;;;18.93;43.29;100452.72;5001170;28;20540;-75
2023/11/12 02:43:34;;;;;;;8.52;4.78;;;;;;;18.91;43.36;100444.13;5013034;28;20080;-75
2023/11/12 02:45:59;;;;;;;8.00;5.10;;;;;;;18.92;43.42;100443.97;5014965;28;20029;-75
2023/11/12 02:48:35;;;;;;;8.70;5.13;;;;;;;18.91;43.39;100450.22;4998602;28;20444;-76
2023/11/12 02:51:01;;;;;;;8.38;4.85;;;;;;;18.89;43.62;100446.91;5004070;28;20872;-75
2023/11/12 02:53:26;;;;;;;8.30;5.22;;;;;;;18.90;43.34;100453.00;4998161;28;20524;-74
2023/11/12 02:55:52;;;;;;;6.60;4.50;;;;;;;18.89;43.38;100449.53;5004307;28;20140;-74
2023/11/12 02:58:17;;;;;;;7.53;4.40;;;;;;;18.88;43.54;100445.22;4999654;28;20279;-75
2023/11/12 03:00:42;;;;;;;8.17;4.80;;;;;;;18.88;43.23;100447.03;5006207;28;20120;-74
2023/11/12 03:03:07;;;;;;;6.22;4.30;;;;;;;18.89;43.48;100454.00;5005186;28;20274;-75
2023/11/12 03:05:33;;;;;;;7.63;4.90;;;;;;;18.88;42.97;100447.84;5011455;28;20036;-75
2023/11/12 03:07:58;;;;;;;6.82;4.10;;;;;;;18.88;43.41;100444.41;5009977;28;20310;-75
2023/11/12 03:10:24;;;;;;;7.18;4.38;;;;;;;18.84;43.34;100442.03;5006468;28;20124;-75
2023/11/12 03:12:50;;;;;;;7.07;4.03;;;;;;;18.85;43.31;100442.88;5008154;28;20042;-75
2023/11/12 03:15:15;;;;;;;8.45;4.38;;;;;;;18.84;43.43;100447.31;5009026;28;20068;-74
2023/11/12 03:17:41;;;;;;;7.07;4.07;;;;;;;18.83;43.03;100443.00;5012128;28;20033;-74
2023/11/12 03:20:10;;;;;;;7.40;4.30;;;;;;;18.82;43.25;100438.69;5008794;28;20117;-75
2023/11/12 03:22:36;;;;;;;6.90;4.43;;;;;;;18.83;43.05;100453.56;5010009;28;20039;-75
2023/11/12 03:25:04;;;;;;;6.75;4.07;;;;;;;18.83;43.21;100448.28;5010705;28;20460;-75
2023/11/12 03:27:48;;;;;;;7.03;3.75;;;;;;;18.83;43.29;100450.06;5012797;28;20490;-75
2023/11/12 03:30:14;;;;;;;7.05;4.18;;;;;;;18.82;43.05;100441.31;5016972;28;20047;-76
2023/11/12 03:32:39;;;;;;;6.85;4.13;;;;;;;18.82;43.26;100438.69;5014944;28;20116;-75
2023/11/12 03:35:06;;;;;;;7.03;3.72;;;;;;;18.80;43.41;100435.34;5015431;28;20045;-75
2023/11/12 03:37:31;;;;;;;7.03;4.00;;;;;;;18.81;43.36;100436.16;5006431;28;20029;-76
2023/11/12 03:39:57;;;;;;;7.32;4.10;;;;;;;18.80;43.17;100438.00;5012128;28;20040;-76
2023/11/12 03:42:22;;;;;;;7.60;4.20;;;;;;;18.81;43.20;100438.81;5018964;28;20037;-75
2023/11/12 03:44:49;;;;;;;6.40;3.50;;;;;;;18.80;43.13;100432.72;5014462;28;20271;-75
2023/11/12 03:47:33;;;;;;;6.70;3.58;;;;;;;18.80;43.21;100427.44;5011687;28;20045;-75
2023/11/12 03:49:58;;;;;;;7.18;3.88;;;;;;;18.78;43.15;100415.31;5018828;28;20037;-76
2023/11/12 03:52:23;;;;;;;7.97;4.03;;;;;;;18.79;43.20;100419.66;5009848;28;20044;-76
2023/11/12 03:54:48;;;;;;;6.60;3.58;;;;;;;18.78;43.47;100426.72;5013714;28;20267;-73
2023/11/12 03:57:14;;;;;;;8.70;4.10;;;;;;;18.77;43.24;100429.50;5020774;28;20046;-74
2023/11/12 03:59:39;;;;;;;6.75;4.05;;;;;;;18.77;43.22;100426.84;5021450;28;20079;-74
2023/11/12 04:02:05;;;;;;;5.57;3.75;;;;;;;18.76;43.09;100427.84;5021518;28;20198;-75
2023/11/12 04:04:30;;;;;;;6.05;3.58;;;;;;;18.74;42.93;100417.41;5021993;28;20473;-74
2023/11/12 04:06:56;;;;;;;6.63;4.03;;;;;;;18.75;43.09;100419.06;5021676;28;20481;-75
2023/11/12 04:09:21;;;;;;;6.88;3.75;;;;;;;18.73;42.96;100421.03;5021876;28;20040;-75
2023/11/12 04:11:47;;;;;;;6.55;3.95;;;;;;;18.74;43.30;100420.06;5021754;28;20040;-76
2023/11/12 04:14:12;;;;;;;6.70;3.50;;;;;;;18.74;43.12;100421.84;5022717;28;20068;-74
2023/11/12 04:16:40;;;;;;;6.13;4.13;;;;;;;18.74;43.24;100421.84;5004351;28;20294;-74
2023/11/12 04:19:05;;;;;;;9.55;4.07;;;;;;;18.73;43.12;100422.84;5021116;28;20037;-72
2023/11/12 04:21:31;;;;;;;6.45;4.10;;;;;;;18.72;42.89;100421.97;5021757;28;20033;-74
2023/11/12 04:23:56;;;;;;;8.50;4.43;;;;;;;18.71;43.14;100422.97;5021993;28;20052;-75
2023/11/12 04:26:22;;;;;;;7.28;4.15;;;;;;;18.71;42.97;100419.47;5021417;28;20037;-75
2023/11/12 04:28:47;;;;;;;5.85;3.83;;;;;;;18.70;42.82;100425.75;5021709;28;20068;-74
2023/11/12 04:31:13;;;;;;;7.72;4.57;;;;;;;18.70;42.98;100417.84;5021685;28;20035;-74
2023/11/12 04:33:38;;;;;;;6.85;4.38;;;;;;;18.70;42.93;100420.47;5021173;28;20083;-74
2023/11/12 04:36:03;;;;;;;7.30;3.93;;;;;;;18.70;43.07;100415.19;5021135;28;20130;-74
2023/11/12 04:38:29;;;;;;;7.28;4.45;;;;;;;18.67;42.93;100419.78;5021536;28;20275;-74
2023/11/12 04:40:55;;;;;;;7.00;4.35;;;;;;;18.66;42.93;100415.47;5020838;28;20037;-74
2023/11/12 04:43:21;;;;;;;7.45;4.63;;;;;;;18.68;42.85;100425.88;5020938;28;20532;-74
2023/11/12 04:45:46;;;;;;;7.07;4.15;;;;;;;18.65;42.95;100424.34;5021713;28;20030;-76
2023/11/12 04:48:12;;;;;;;7.97;3.90;;;;;;;18.65;42.74;100423.53;5021997;28;20116;-74
2023/11/12 04:50:40;;;;;;;7.03;4.18;;;;;;;18.65;42.83;100437.53;5020585;28;20022;-74
2023/11/12 04:53:06;;;;;;;8.52;4.75;;;;;;;18.64;42.93;100429.75;5020901;28;20099;-74
2023/11/12 04:55:31;;;;;;;6.30;3.67;;;;;;;18.63;42.77;100428.94;5021228;28;20444;-75
2023/11/12 04:58:04;;;;;;;6.45;3.97;;;;;;;18.62;42.91;100426.44;5003166;28;20433;-75
2023/11/12 05:00:31;;;;;;;;;;;;;;;18.66;42.98;100430.47;5021084;28;20044;-74
2023/11/12 05:02:57;;;;;;;7.93;4.40;;;;;;;18.69;42.88;100435.47;5002746;28;19913;-73
2023/11/12 05:05:22;;;;;;;7.10;3.85;;;;;;;18.65;42.88;100437.53;5020240;28;20057;-74
2023/11/12 05:07:48;;;;;;;7.25;4.70;;;;;;;18.63;42.79;100434.22;5019883;28;20037;-75
2023/11/12 05:10:14;;;;;;;6.82;4.40;;;;;;;18.61;42.81;100436.16;5020847;28;20065;-75
2023/11/12 05:12:40;;;;;;;6.95;4.60;;;;;;;18.61;42.76;100432.69;5021523;28;20536;-76
2023/11/12 05:15:06;;;;;;;7.50;4.28;;;;;;;18.60;42.55;100439.78;5020864;28;20041;-75
2023/11/12 05:17:32;;;;;;;6.82;4.30;;;;;;;18.60;42.95;100438.94;5021864;28;20221;-75
2023/11/12 05:19:57;;;;;;;6.50;3.70;;;;;;;18.60;42.75;100438.94;5021112;28;20038;-74
2023/11/12 05:22:22;;;;;;;8.37;4.60;;;;;;;18.59;42.65;100450.47;5020563;28;20316;-75
2023/11/12 05:24:51;;;;;;;8.63;4.35;;;;;;;18.58;42.69;100444.38;5021606;28;20270;-75
2023/11/12 05:27:18;;;;;;;6.85;4.18;;;;;;;18.58;42.77;100451.44;5021615;28;20029;-75
2023/11/12 05:29:43;;;;;;;6.57;4.30;;;;;;;18.58;42.55;100452.28;5020721;28;20080;-75
2023/11/12 05:32:08;;;;;;;6.45;4.00;;;;;;;18.57;42.73;100452.41;5021542;28;20096;-74
2023/11/12 05:34:34;;;;;;;6.70;4.10;;;;;;;18.56;42.66;100450.75;5021474;28;20443;-75
2023/11/12 05:36:59;;;;;;;6.15;4.45;;;;;;;18.57;42.81;100457.69;5020736;28;20270;-74
2023/11/12 05:39:24;;;;;;;7.20;4.32;;;;;;;18.57;42.44;100476.16;5003220;28;20037;-75
2023/11/12 05:41:50;;;;;;;5.80;3.47;;;;;;;18.55;42.65;100478.09;5019783;28;20059;-74
2023/11/12 05:44:15;;;;;;;6.80;4.50;;;;;;;18.54;42.81;100468.53;5017617;28;20270;-75
2023/11/12 05:46:40;;;;;;;7.20;4.23;;;;;;;18.55;42.65;100467.53;5019486;28;20539;-75
2023/11/12 05:49:06;;;;;;;6.32;3.80;;;;;;;18.54;42.82;100469.34;5018810;28;20286;-75
2023/11/12 05:51:32;;;;;;;6.35;4.05;;;;;;;18.54;42.37;100474.63;5016917;28;20613;-75
2023/11/12 05:53:57;;;;;;;7.72;3.95;;;;;;;18.54;42.57;100471.16;5018351;28;20099;-74
2023/11/12 05:56:22;;;;;;;6.22;3.90;;;;;;;18.54;42.59;100473.81;4997822;28;20177;-75
2023/11/12 05:58:48;;;;;;;5.80;3.97;;;;;;;18.54;43.00;100473.81;5011742;28;20112;-74
2023/11/12 06:01:13;;;;;;;6.40;4.03;;;;;;;18.54;42.68;100474.63;5007224;28;20116;-75
2023/11/12 06:03:38;;;;;;;6.32;4.07;;;;;;;18.55;42.45;100475.44;5003899;28;20041;-75
2023/11/12 06:06:04;;;;;;;6.07;3.70;;;;;;;18.55;43.01;100476.31;5001377;28;20120;-75
2023/11/12 06:08:29;;;;;;;6.68;4.03;;;;;;;18.58;43.02;100470.75;5018264;28;20543;-75
2023/11/12 06:10:56;;;;;;;5.90;3.90;;;;;;;18.60;43.07;100473.25;5009260;28;20112;-75
2023/11/12 06:13:22;;;;;;;5.85;3.75;;;;;;;18.59;43.27;100474.22;5010689;28;20072;-74
2023/11/12 06:15:47;;;;;;;5.32;3.60;;;;;;;18.60;43.44;100475.91;5000528;28;20305;-76
2023/11/12 06:18:12;;;;;;;6.03;3.70;;;;;;;18.61;43.74;100474.91;5008488;28;20037;-75
2023/11/12 06:20:38;;;;;;;4.93;3.30;;;;;;;18.61;44.02;100467.00;5008510;28;20080;-75
2023/11/12 06:23:03;;;;;;;5.55;3.47;;;;;;;18.65;44.17;100461.31;5000943;28;20033;-75
2023/11/12 06:25:29;;;;;;;5.50;3.00;;;;;;;18.66;43.83;100465.63;5010572;28;20320;-76
2023/11/12 06:27:54;;;;;;;5.93;3.40;;;;;;;18.68;44.02;100463.66;5010184;28;20458;-75
2023/11/12 06:30:20;;;;;;;5.90;3.35;;;;;;;18.70;43.79;100468.00;5010770;28;20229;-76
2023/11/12 06:32:48;;;;;;;5.20;3.10;;;;;;;18.71;43.58;100470.50;5011890;28;20543;-75
2023/11/12 06:35:13;;;;;;;5.10;2.80;;;;;;;18.74;43.57;100469.38;5009544;28;20094;-75
2023/11/12 06:37:39;;;;;;;4.35;2.67;;;;;;;18.74;43.78;100472.00;5010889;28;20511;-76
2023/11/12 06:40:06;;;;;;;4.80;2.88;;;;;;;18.76;44.10;100476.19;5010479;28;20034;-75
2023/11/12 06:42:32;;;;;;;5.60;3.20;;;;;;;18.79;43.66;100491.75;5011881;28;20331;-75
2023/11/12 06:44:58;;;;;;;4.63;2.85;;;;;;;18.82;43.82;100494.13;5003380;28;20038;-74
2023/11/12 06:47:24;;;;;;;5.97;3.40;;;;;;;18.84;43.84;100494.84;5010409;28;20046;-75
2023/11/12 06:49:49;;;;;;;4.88;2.55;;;;;;;18.89;43.78;100498.88;5013309;28;20466;-76
2023/11/12 06:52:15;;;;;;;4.72;2.80;;;;;;;18.90;43.66;100504.03;5003125;28;20071;-75
2023/11/12 06:54:41;;;;;;;4.22;2.35;;;;;;;18.91;43.43;100496.94;4998051;28;20038;-75
2023/11/12 06:57:07;;;;;;;4.72;2.70;;;;;;;18.93;43.52;100505.53;5017834;28;20098;-74
2023/11/12 06:59:32;;;;;;;4.47;2.80;;;;;;;18.93;43.52;100500.25;5001767;28;20040;-75
2023/11/12 07:01:57;;;;;;;4.55;2.55;;;;;;;18.96;43.57;100508.75;5019920;28;20324;-74
2023/11/12 07:04:22;;;;;;;4.65;2.58;;;;;;;18.97;43.26;100507.78;5019455;28;20105;-75
2023/11/12 07:06:48;;;;;;;4.80;2.70;;;;;;;18.99;43.44;100510.28;5022661;28;20029;-74
2023/11/12 07:09:13;;;;;;;4.32;2.70;;;;;;;18.99;43.18;100499.72;5024138;28;20313;-75
2023/11/12 07:11:38;;;;;;;4.75;2.88;;;;;;;19.01;43.40;100508.34;5023948;28;20060;-75
2023/11/12 07:14:04;;;;;;;4.53;2.40;;;;;;;19.01;43.50;100509.16;5023325;28;20033;-75
2023/11/12 07:16:29;;;;;;;4.22;2.42;;;;;;;19.02;43.41;100515.28;5024044;28;20053;-75
2023/11/12 07:18:57;;;;;;;4.38;2.50;;;;;;;19.02;43.33;100512.63;5023460;28;20504;-74
2023/11/12 07:21:24;;;;;;;4.38;2.58;;;;;;;18.99;43.41;100508.47;5023197;28;20034;-75
2023/11/12 07:23:50;;;;;;;4.38;2.28;;;;;;;19.01;43.46;100513.63;5023831;28;20033;-75
2023/11/12 07:26:16;;;;;;;4.50;2.58;;;;;;;19.01;43.37;100503.06;5023682;28;20040;-75
2023/11/12 07:28:42;;;;;;;3.90;2.30;;;;;;;19.02;43.36;100504.72;5023387;28;20041;-75
2023/11/12 07:31:08;;;;;;;4.10;2.38;;;;;;;19.03;43.46;100515.13;5023025;28;21067;-75
2023/11/12 07:33:33;;;;;;;3.88;2.22;;;;;;;19.02;43.37;100502.06;5023594;28;20068;-75
2023/11/12 07:35:59;;;;;;;4.57;2.58;;;;;;;19.02;43.32;100515.28;5022951;28;20148;-75
2023/11/12 07:38:24;;;;;;;4.32;2.50;;;;;;;19.03;43.30;100522.25;5023607;28;20436;-75
2023/11/12 07:40:49;;;;;;;3.72;2.10;;;;;;;19.03;43.73;100522.25;5023449;28;20461;-74
2023/11/12 07:43:15;;;;;;;4.18;2.47;;;;;;;19.03;43.34;100527.53;5023220;28;20148;-74
2023/11/12 07:45:40;;;;;;;4.10;2.35;;;;;;;19.01;43.28;100530.31;5022075;28;20041;-74
2023/11/12 07:48:07;;;;;;;3.67;2.05;;;;;;;19.03;43.30;100540.72;5021692;28;20509;-75
2023/11/12 07:50:32;;;;;;;4.03;2.53;;;;;;;19.03;42.86;100528.34;5020622;28;20033;-74
2023/11/12 07:52:57;;;;;;;4.47;2.65;;;;;;;19.05;42.37;100527.38;5021472;28;20041;-74
2023/11/12 07:55:25;;;;;;;4.85;2.50;;;;;;;19.02;42.67;100531.13;5022108;28;20107;-76
2023/11/12 07:57:51;;;;;;;4.70;2.45;;;;;;;19.04;42.80;100531.81;5004283;28;20037;-75
2023/11/12 08:00:19;;;;;;;4.30;2.58;;;;;;;19.05;42.35;100536.13;5016763;28;20783;-73
2023/11/12 08:02:47;;;;;;;4.80;2.72;;;;;;;19.05;42.86;100544.06;5003131;28;20061;-75
2023/11/12 08:05:13;;;;;;;4.40;2.60;;;;;;;19.03;42.26;100541.56;5009030;28;20044;-73
2023/11/12 08:07:38;;;;;;;4.43;2.70;;;;;;;19.05;42.50;100540.59;5020854;28;20033;-75
2023/11/12 08:10:05;;;;;;;4.50;2.60;;;;;;;19.05;42.67;100543.22;5005964;28;20119;-75
2023/11/12 08:12:31;;;;;;;3.80;2.20;;;;;;;19.06;42.66;100547.53;5009190;28;20053;-74
2023/11/12 08:14:56;;;;;;;5.60;2.40;;;;;;;19.05;42.74;100553.78;5014481;28;20030;-75
2023/11/12 08:17:22;;;;;;;4.00;2.20;;;;;;;19.05;42.97;100559.06;5011353;28;20037;-75
2023/11/12 08:19:47;;;;;;;4.47;2.00;;;;;;;19.05;42.83;100551.97;5011941;28;20693;-74
2023/11/12 08:22:12;;;;;;;5.20;2.57;;;;;;;19.06;42.72;100573.94;5002900;28;20543;-73
2023/11/12 08:24:37;;;;;;;3.60;2.03;;;;;;;19.02;42.94;100557.53;5015643;28;20507;-74
2023/11/12 08:27:04;;;;;;;3.55;2.15;;;;;;;19.01;43.32;100567.28;5010080;28;20283;-74
2023/11/12 08:29:31;;;;;;;4.03;2.10;;;;;;;18.98;43.51;100572.81;5001541;28;20422;-75
2023/11/12 08:31:57;;;;;;;4.63;2.15;;;;;;;19.02;43.08;100571.56;5011340;28;20029;-74
2023/11/12 08:34:22;;;;;;;5.38;2.10;;;;;;;19.02;43.50;100571.56;5008037;28;20044;-76
2023/11/12 08:36:49;;;;;;;3.60;1.95;;;;;;;19.03;43.67;100575.06;5010294;28;20034;-76
2023/11/12 08:39:16;;;;;;;3.95;2.17;;;;;;;19.02;44.09;100576.84;5014933;28;20032;-75
2023/11/12 08:41:44;;;;;;;4.20;2.17;;;;;;;19.04;43.98;100576.72;5012714;28;20787;-75
2023/11/12 08:44:10;;;;;;;3.90;2.13;;;;;;;19.06;44.22;100574.78;5006137;28;20049;-76
2023/11/12 08:46:36;;;;;;;4.38;2.20;;;;;;;19.06;43.87;100569.50;5002981;28;20044;-71
2023/11/12 08:49:04;;;;;;;4.55;2.10;;;;;;;19.07;43.82;100576.44;5001599;28;21056;-74
2023/11/12 08:51:31;;;;;;;3.60;1.80;;;;;;;19.10;43.88;100581.44;5003828;28;20045;-83
2023/11/12 08:53:56;;;;;;;6.93;2.30;;;;;;;19.13;43.86;100585.63;5015627;28;20052;-78
2023/11/12 08:56:21;;;;;;;4.00;2.10;;;;;;;19.14;43.51;100580.22;5012336;28;20053;-77
2023/11/12 08:58:46;;;;;;;4.22;2.15;;;;;;;19.15;43.59;100583.69;5012753;28;20346;-80
2023/11/12 09:01:12;;;;;;;3.55;1.85;;;;;;;19.13;43.69;100583.81;5014687;28;20067;-80
2023/11/12 09:03:37;;;;;;;3.63;1.90;;;;;;;19.10;44.01;100581.44;5004997;28;20041;-77
2023/11/12 09:06:04;;;;;;;3.20;1.73;;;;;;;19.07;43.79;100587.00;5001606;28;20444;-78
2023/11/12 09:08:30;;;;;;;3.70;2.08;;;;;;;19.05;43.88;100581.03;5003048;28;20068;-79
2023/11/12 09:10:55;;;;;;;4.45;2.10;;;;;;;19.01;44.04;100583.13;5007985;28;20144;-78
2023/11/12 09:13:21;;;;;;;3.30;1.80;;;;;;;19.01;44.13;100582.28;5010684;28;20037;-77
2023/11/12 09:15:47;;;;;;;4.32;1.83;;;;;;;19.03;44.15;100578.53;5011163;28;20474;-78
2023/11/12 09:18:12;;;;;;;5.97;2.00;;;;;;;19.08;44.19;100578.13;5008292;28;20044;-83
2023/11/12 09:20:38;;;;;;;3.95;2.10;;;;;;;19.09;44.13;100568.38;5010546;28;20034;-80
2023/11/12 09:23:03;;;;;;;4.32;1.77;;;;;;;19.18;44.28;100572.84;5006100;28;20568;-75
2023/11/12 09:25:28;;;;;;;4.00;2.30;;;;;;;19.23;43.72;100569.78;5007992;28;20049;-79
2023/11/12 09:27:55;;;;;;;3.88;2.00;;;;;;;19.25;43.91;100575.75;5005865;28;20037;-76
2023/11/12 09:30:22;;;;;;;5.57;1.98;;;;;;;19.21;44.10;100578.69;5012979;28;20029;-83
2023/11/12 09:32:47;;;;;;;4.18;2.05;;;;;;;19.18;44.17;100580.75;5011337;28;20021;-80
2023/11/12 09:35:14;;;;;;;3.72;1.95;;;;;;;19.15;44.19;100576.59;5009973;28;20036;-79
2023/11/12 09:37:40;;;;;;;3.30;1.60;;;;;;;19.14;44.12;100582.03;5009458;28;20034;-79
2023/11/12 09:40:08;;;;;;;4.05;1.88;;;;;;;19.13;44.22;100580.34;5010640;28;20048;-81
2023/11/12 09:42:37;;;;;;;3.58;1.80;;;;;;;19.11;44.62;100577.84;5010899;28;20033;-78
2023/11/12 09:45:05;;;;;;;3.60;2.03;;;;;;;19.12;44.52;100582.16;5010984;28;20095;-79
2023/11/12 09:47:56;;;;;;;3.58;1.70;;;;;;;19.11;44.37;100579.66;5000168;28;20033;-79
2023/11/12 09:50:23;;;;;;;3.38;1.77;;;;;;;19.12;44.33;100582.16;5007946;28;20029;-78
2023/11/12 09:52:50;;;;;;;4.20;1.85;;;;;;;19.11;44.37;100585.78;5008722;28;20092;-73
2023/11/12 09:55:17;;;;;;;4.10;1.92;;;;;;;19.11;44.53;100577.03;4998723;28;20055;-73
2023/11/12 09:57:47;;;;;;;3.72;1.88;;;;;;;19.10;44.39;100583.25;5011867;28;20120;-74
2023/11/12 10:00:16;;;;;;;3.33;1.80;;;;;;;19.11;44.66;100585.78;5001557;28;20468;-75
2023/11/12 10:02:44;;;;;;;4.28;1.98;;;;;;;19.11;44.21;100583.13;3698852;28;10000769;-76
2023/11/12 10:05:10;;;;;;;9.45;2.00;;;;;;;19.13;44.36;100580.34;3694169;28;95947;-74
2023/11/12 10:07:41;;;;;;;4.28;2.33;;;;;;;19.10;44.51;100576.16;4189270;28;20056;-73
2023/11/12 10:10:33;;;;;;;4.20;1.92;;;;;;;19.14;44.46;100572.28;3528803;28;10314544;-73
2023/11/12 10:12:59;;;;;;;5.07;1.83;;;;;;;19.12;44.46;100576.88;3360734;28;5091006;-75
2023/11/12 10:15:29;;;;;;;3.70;1.90;;;;;;;19.15;44.58;100584.53;3213386;28;10005349;-77
2023/11/12 10:17:55;;;;;;;5.22;1.95;;;;;;;19.15;44.62;100579.25;4920872;28;20304;-77
2023/11/12 10:20:25;;;;;;;4.22;1.77;;;;;;;19.11;44.35;100587.59;4947990;28;20039;-76
2023/11/12 10:22:52;;;;;;;4.15;1.90;;;;;;;19.10;44.59;100592.00;4946132;28;20035;-84
2023/11/12 10:25:41;;;;;;;4.60;1.80;;;;;;;19.09;44.75;100590.38;4963970;28;20051;-80
2023/11/12 10:28:08;;;;;;;3.42;1.77;;;;;;;19.09;44.42;100595.66;4946553;28;20047;-81
2023/11/12 10:30:35;;;;;;;3.67;1.92;;;;;;;19.07;44.27;100592.28;4946487;28;20417;-83
2023/11/12 10:33:27;;;;;;;3.80;1.70;;;;;;;19.08;44.48;100598.44;4946998;28;20457;-76
2023/11/12 10:35:55;;;;;;;4.00;1.73;;;;;;;19.09;44.49;100594.78;4946933;28;20138;-76
2023/11/12 10:38:20;;;;;;;4.38;1.80;;;;;;;19.07;44.92;100597.56;4950956;28;20042;-76
2023/11/12 10:41:02;;;;;;;3.33;1.88;;;;;;;19.05;44.97;100594.25;4947785;28;20034;-76
2023/11/12 10:43:31;;;;;;;4.05;1.98;;;;;;;19.06;44.53;100595.91;4953914;28;20133;-78
2023/11/12 10:46:03;;;;;;;4.35;1.80;;;;;;;19.07;44.60;100602.84;4954952;28;20042;-78
2023/11/12 10:48:39;;;;;;;4.60;2.60;;;;;;;19.05;44.13;100603.97;4955667;28;20089;-77
2023/11/12 10:51:10;;;;;;;3.97;1.95;;;;;;;19.03;44.32;100602.28;4966958;28;20129;-79
2023/11/12 10:53:37;;;;;;;4.78;2.05;;;;;;;19.03;44.36;100606.75;4947158;28;20117;-78
2023/11/12 10:56:05;;;;;;;3.92;1.77;;;;;;;19.05;44.46;100617.19;4935584;28;20061;-73
2023/11/12 10:58:31;;;;;;;4.20;2.25;;;;;;;19.05;44.58;100615.38;4946203;28;20116;-76
2023/11/12 11:01:01;;;;;;;4.10;1.65;;;;;;;19.04;44.66;100613.69;4946617;28;20109;-72
2023/11/12 11:03:28;;;;;;;3.55;1.98;;;;;;;19.06;44.48;100609.13;4948319;28;20039;-73
2023/11/12 11:05:55;;;;;;;5.28;1.95;;;;;;;19.07;44.41;100605.50;4946684;28;20517;-71
2023/11/12 11:08:22;;;;;;;4.80;2.03;;;;;;;19.09;44.26;100605.34;4947303;28;20232;-71
2023/11/12 11:10:48;;;;;;;6.75;2.00;;;;;;;19.10;44.38;100599.09;4946116;28;20034;-71
2023/11/12 11:13:13;;;;;;;5.28;2.08;;;;;;;19.11;44.63;100608.72;4945406;28;20089;-72
2023/11/12 11:15:47;;;;;;;4.65;2.10;;;;;;;19.12;44.32;100608.59;4946228;28;20035;-72
2023/11/12 11:18:34;;;;;;;6.10;1.92;;;;;;;19.14;44.37;100606.63;4933343;28;20035;-71
2023/11/12 11:23:53;;;;;;;7.20;2.23;;;;;;;19.17;44.63;100606.34;4481625;28;10001637;-75